createdAt,value
2022-10-14T00:01:22.863Z,9.53
2022-10-14T00:03:52.011Z,9.27
2022-10-14T00:06:23.233Z,8.97
2022-10-14T00:08:51.200Z,9.30
2022-10-14T00:11:22.979Z,11.47
2022-10-14T00:13:51.169Z,9.90
2022-10-14T00:16:21.680Z,9.60
2022-10-14T00:18:50.375Z,10.83
2022-10-14T00:21:19.216Z,9.00
2022-10-14T00:23:48.434Z,9.40
2022-10-14T00:26:20.837Z,8.77
2022-10-14T00:28:49.031Z,8.87
2022-10-14T00:31:20.765Z,8.53
2022-10-14T00:33:49.545Z,9.23
2022-10-14T00:36:20.905Z,12.60
2022-10-14T00:38:51.245Z,11.73
2022-10-14T00:41:26.032Z,11.97
2022-10-14T00:44:01.863Z,11.97
2022-10-14T00:46:37.542Z,10.33
2022-10-14T00:49:13.558Z,11.57
2022-10-14T00:51:45.798Z,9.50
2022-10-14T00:54:17.990Z,11.07
2022-10-14T00:56:49.143Z,10.00
2022-10-14T00:59:17.722Z,10.03
2022-10-14T01:01:46.032Z,11.37
2022-10-14T01:04:14.185Z,9.97
2022-10-14T01:06:49.040Z,11.10
2022-10-14T01:09:27.437Z,12.73
2022-10-14T01:12:28.020Z,9.67
2022-10-14T01:15:08.087Z,9.90
2022-10-14T01:17:50.156Z,10.10
2022-10-14T01:20:47.041Z,10.87
2022-10-14T01:23:40.516Z,9.77
2022-10-14T01:26:30.134Z,10.13
2022-10-14T01:29:18.715Z,9.43
2022-10-14T01:31:54.408Z,9.10
2022-10-14T01:34:28.007Z,9.03
2022-10-14T01:37:00.421Z,8.23
2022-10-14T01:39:33.656Z,8.27
2022-10-14T01:42:06.891Z,9.17
2022-10-14T01:44:40.152Z,8.77
2022-10-14T01:47:12.186Z,8.93
2022-10-14T01:49:46.123Z,8.80
2022-10-14T01:52:22.639Z,8.83
2022-10-14T01:54:55.449Z,9.03
2022-10-14T01:57:27.271Z,9.80
2022-10-14T01:59:57.388Z,9.30
2022-10-14T02:02:28.015Z,8.23
2022-10-14T02:04:55.971Z,8.37
2022-10-14T02:07:30.453Z,10.20
2022-10-14T02:10:09.689Z,8.33
2022-10-14T02:12:47.051Z,8.60
2022-10-14T02:15:22.219Z,9.57
2022-10-14T02:17:57.169Z,8.30
2022-10-14T02:20:30.142Z,8.77
2022-10-14T02:23:03.093Z,7.50
2022-10-14T02:25:35.434Z,8.77
2022-10-14T02:28:07.196Z,8.80
2022-10-14T02:30:41.865Z,9.47
2022-10-14T02:33:11.659Z,8.60
2022-10-14T02:35:41.131Z,9.07
2022-10-14T02:38:09.947Z,8.33
2022-10-14T02:40:43.146Z,7.97
2022-10-14T02:43:12.339Z,8.73
2022-10-14T02:45:42.235Z,8.07
2022-10-14T02:48:13.066Z,8.00
2022-10-14T02:50:42.083Z,8.40
2022-10-14T02:53:14.047Z,8.20
2022-10-14T02:55:42.301Z,8.33
2022-10-14T02:58:10.438Z,8.33
2022-10-14T03:00:38.486Z,8.50
2022-10-14T03:03:06.662Z,8.57
2022-10-14T03:05:36.063Z,8.80
2022-10-14T03:08:04.501Z,7.10
2022-10-14T03:10:32.446Z,7.67
2022-10-14T03:13:00.375Z,9.73
2022-10-14T03:15:28.300Z,8.33
2022-10-14T03:17:56.301Z,7.10
2022-10-14T03:20:24.238Z,7.97
2022-10-14T03:22:53.531Z,6.77
2022-10-14T03:25:21.500Z,8.17
2022-10-14T03:27:49.437Z,7.10
2022-10-14T03:30:17.642Z,6.77
2022-10-14T03:32:45.593Z,9.80
2022-10-14T03:35:13.665Z,7.03
2022-10-14T03:37:41.642Z,8.40
2022-10-14T03:40:12.866Z,6.80
2022-10-14T03:42:41.608Z,7.83
2022-10-14T03:45:11.640Z,7.20
2022-10-14T03:47:39.627Z,7.60
2022-10-14T03:50:08.254Z,7.47
2022-10-14T03:52:37.362Z,8.00
2022-10-14T03:55:06.161Z,7.97
2022-10-14T03:57:35.458Z,6.73
2022-10-14T04:00:04.105Z,8.23
2022-10-14T04:02:32.188Z,6.73
2022-10-14T04:05:01.230Z,6.60
2022-10-14T04:07:29.331Z,7.17
2022-10-14T04:09:57.295Z,6.17
2022-10-14T04:12:28.210Z,5.67
2022-10-14T04:14:59.181Z,6.37
2022-10-14T04:17:27.535Z,8.07
2022-10-14T04:19:55.561Z,6.27
2022-10-14T04:22:23.868Z,6.60
2022-10-14T04:24:52.456Z,6.63
2022-10-14T04:27:22.324Z,6.43
2022-10-14T04:29:51.250Z,5.87
2022-10-14T04:32:22.020Z,6.10
2022-10-14T04:34:53.082Z,7.07
2022-10-14T04:37:21.335Z,6.80
2022-10-14T04:39:50.484Z,6.27
2022-10-14T04:42:18.600Z,6.73
2022-10-14T04:44:46.701Z,5.73
2022-10-14T04:47:14.862Z,6.00
2022-10-14T04:49:44.149Z,7.73
2022-10-14T04:52:12.381Z,7.50
2022-10-14T04:54:40.902Z,6.10
2022-10-14T04:57:10.004Z,7.20
2022-10-14T04:59:37.922Z,6.00
2022-10-14T05:02:06.178Z,7.30
2022-10-14T05:04:35.045Z,6.60
2022-10-14T05:07:04.533Z,6.40
2022-10-14T05:09:35.342Z,6.77
2022-10-14T05:12:04.164Z,6.13
2022-10-14T05:14:32.536Z,6.27
2022-10-14T05:17:00.494Z,7.00
2022-10-14T05:19:29.642Z,6.37
2022-10-14T05:21:57.639Z,6.20
2022-10-14T05:24:26.976Z,6.80
2022-10-14T05:26:54.880Z,5.57
2022-10-14T05:29:22.833Z,5.93
2022-10-14T05:31:51.076Z,5.90
2022-10-14T05:34:19.014Z,6.67
2022-10-14T05:36:47.007Z,5.80
2022-10-14T05:39:15.011Z,5.50
2022-10-14T05:41:44.280Z,5.70
2022-10-14T05:44:13.175Z,6.40
2022-10-14T05:46:41.167Z,5.57
2022-10-14T05:49:09.105Z,5.53
2022-10-14T05:51:37.106Z,6.57
2022-10-14T05:54:05.341Z,5.60
2022-10-14T05:56:33.400Z,5.73
2022-10-14T05:59:02.653Z,6.57
2022-10-14T06:01:31.362Z,6.13
2022-10-14T06:03:59.334Z,6.13
2022-10-14T06:06:29.196Z,5.20
2022-10-14T06:08:57.713Z,5.67
2022-10-14T06:11:25.653Z,6.67
2022-10-14T06:13:54.224Z,6.17
2022-10-14T06:16:23.521Z,6.40
2022-10-14T06:18:54.403Z,5.40
2022-10-14T06:21:24.410Z,5.53
2022-10-14T06:23:52.363Z,5.10
2022-10-14T06:26:20.356Z,4.60
2022-10-14T06:28:48.505Z,4.70
2022-10-14T06:31:16.620Z,5.57
2022-10-14T06:33:45.931Z,5.70
2022-10-14T06:36:14.694Z,6.57
2022-10-14T06:38:42.788Z,5.20
2022-10-14T06:41:11.251Z,5.10
2022-10-14T06:43:39.450Z,5.27
2022-10-14T06:46:07.924Z,5.70
2022-10-14T06:48:35.925Z,6.73
2022-10-14T06:51:05.573Z,5.60
2022-10-14T06:53:33.549Z,6.17
2022-10-14T06:56:04.249Z,5.63
2022-10-14T06:58:32.729Z,6.57
2022-10-14T07:01:03.529Z,7.03
2022-10-14T07:03:31.683Z,5.90
2022-10-14T07:05:59.752Z,5.43
2022-10-14T07:08:29.140Z,6.07
2022-10-14T07:10:57.094Z,5.13
2022-10-14T07:13:25.299Z,5.80
2022-10-14T07:15:53.266Z,6.23
2022-10-14T07:18:21.404Z,6.80
2022-10-14T07:20:49.435Z,6.57
2022-10-14T07:23:17.594Z,7.70
2022-10-14T07:25:48.734Z,6.80
2022-10-14T07:28:16.749Z,5.93
2022-10-14T07:30:44.814Z,7.03
2022-10-14T07:33:13.151Z,7.27
2022-10-14T07:35:43.894Z,8.17
2022-10-14T07:38:11.835Z,6.60
2022-10-14T07:40:39.803Z,8.20
2022-10-14T07:43:09.096Z,6.53
2022-10-14T07:45:43.759Z,8.07
2022-10-14T07:48:12.815Z,9.27
2022-10-14T07:50:40.814Z,10.80
2022-10-14T07:53:08.810Z,10.80
2022-10-14T07:55:36.779Z,10.90
2022-10-14T07:58:04.778Z,8.90
2022-10-14T08:00:34.215Z,9.43
2022-10-14T08:03:02.249Z,9.63
2022-10-14T08:05:38.185Z,8.63
2022-10-14T08:08:06.856Z,10.60
2022-10-14T08:10:34.947Z,8.93
2022-10-14T08:13:02.942Z,13.33
2022-10-14T08:15:38.694Z,12.57
2022-10-14T08:18:06.928Z,11.50
2022-10-14T08:20:35.020Z,11.70
2022-10-14T08:23:03.330Z,10.80
2022-10-14T08:25:31.694Z,12.97
2022-10-14T08:28:00.844Z,12.60
2022-10-14T08:30:28.911Z,12.20
2022-10-14T08:32:59.937Z,12.90
2022-10-14T08:35:28.194Z,10.90
2022-10-14T08:37:58.166Z,11.80
2022-10-14T08:40:29.342Z,11.93
2022-10-14T08:43:04.338Z,12.03
2022-10-14T08:45:36.938Z,11.50
2022-10-14T08:48:16.520Z,10.87
2022-10-14T08:50:49.720Z,11.27
2022-10-14T08:53:23.983Z,11.57
2022-10-14T08:55:56.298Z,11.17
2022-10-14T08:58:29.453Z,11.30
2022-10-14T09:00:58.484Z,10.67
2022-10-14T09:03:33.897Z,12.40
2022-10-14T09:06:08.129Z,12.63
2022-10-14T09:08:42.962Z,11.33
2022-10-14T09:11:15.751Z,11.57
2022-10-14T09:13:47.851Z,12.17
2022-10-14T09:16:21.362Z,11.23
2022-10-14T09:18:55.993Z,12.30
2022-10-14T09:21:53.316Z,10.97
2022-10-14T09:24:24.987Z,10.93
2022-10-14T09:29:28.105Z,11.10
2022-10-14T09:31:59.668Z,10.70
2022-10-14T09:34:34.696Z,12.10
2022-10-14T09:37:27.160Z,11.43
2022-10-14T09:39:59.686Z,12.30
2022-10-14T09:42:37.976Z,12.17
2022-10-14T09:45:11.677Z,12.07
2022-10-14T09:47:50.015Z,10.70
2022-10-14T09:50:27.902Z,11.50
2022-10-14T09:53:02.514Z,12.47
2022-10-14T09:55:31.463Z,13.00
2022-10-14T09:58:07.549Z,11.70
2022-10-14T10:00:38.620Z,13.43
2022-10-14T10:03:08.114Z,11.23
2022-10-14T10:05:37.802Z,13.33
2022-10-14T10:08:17.512Z,13.80
2022-10-14T10:11:03.667Z,13.70
2022-10-14T10:13:44.599Z,12.23
2022-10-14T10:16:23.825Z,14.40
2022-10-14T10:18:55.134Z,14.43
2022-10-14T10:21:30.031Z,12.90
2022-10-14T10:24:00.919Z,15.03
2022-10-14T10:26:32.836Z,15.27
2022-10-14T10:29:04.404Z,15.43
2022-10-14T10:31:58.191Z,13.60
2022-10-14T10:34:54.865Z,14.30
2022-10-14T10:37:31.509Z,15.47
2022-10-14T10:40:36.782Z,16.03
2022-10-14T10:43:38.584Z,17.70
2022-10-14T10:46:21.596Z,17.43
2022-10-14T10:48:56.087Z,15.40
2022-10-14T10:51:31.915Z,16.13
2022-10-14T10:54:09.451Z,16.33
2022-10-14T10:56:44.859Z,16.50
2022-10-14T10:59:47.428Z,18.00
2022-10-14T11:02:56.677Z,15.43
2022-10-14T11:05:43.237Z,13.10
2022-10-14T11:09:03.574Z,12.10
2022-10-14T11:11:55.251Z,11.47
2022-10-14T11:15:09.919Z,12.20
2022-10-14T11:17:45.486Z,12.00
2022-10-14T11:20:27.231Z,11.13
2022-10-14T11:23:10.990Z,10.73
2022-10-14T11:25:49.234Z,11.50
2022-10-14T11:28:29.236Z,10.93
2022-10-14T11:31:07.697Z,11.47
2022-10-14T11:33:53.742Z,10.90
2022-10-14T11:36:33.397Z,10.53
2022-10-14T11:39:19.603Z,11.07
2022-10-14T11:42:04.984Z,10.87
2022-10-14T11:44:38.583Z,11.00
2022-10-14T11:47:14.291Z,10.73
2022-10-14T11:49:49.767Z,10.57
2022-10-14T11:52:25.863Z,10.73
2022-10-14T11:54:59.571Z,11.27
2022-10-14T11:57:35.081Z,11.40
2022-10-14T12:00:13.032Z,10.97
2022-10-14T12:02:50.530Z,10.97
2022-10-14T12:05:29.195Z,12.13
2022-10-14T12:08:10.806Z,10.40
2022-10-14T12:10:45.051Z,10.80
2022-10-14T12:13:18.540Z,11.00
2022-10-14T12:15:51.646Z,11.10
2022-10-14T12:18:20.291Z,11.57
2022-10-14T12:20:57.958Z,11.77
2022-10-14T12:23:35.478Z,11.50
2022-10-14T12:26:12.184Z,10.77
2022-10-14T12:28:42.946Z,10.90
2022-10-14T12:31:36.451Z,11.10
2022-10-14T12:34:35.729Z,10.93
2022-10-14T12:37:43.112Z,11.10
2022-10-14T12:40:31.165Z,10.40
2022-10-14T12:43:06.404Z,11.77
2022-10-14T12:45:36.495Z,10.30
2022-10-14T12:48:15.797Z,10.27
2022-10-14T12:50:46.744Z,11.90
2022-10-14T12:53:23.976Z,10.67
2022-10-14T12:55:55.718Z,11.53
2022-10-14T12:58:29.717Z,10.30
2022-10-14T13:01:03.129Z,12.10
2022-10-14T13:03:40.329Z,10.67
2022-10-14T13:06:30.198Z,10.10
2022-10-14T13:09:41.456Z,9.03
2022-10-14T13:12:43.846Z,9.83
2022-10-14T13:15:37.832Z,8.70
2022-10-14T13:18:37.190Z,8.07
2022-10-14T13:21:07.029Z,10.27
2022-10-14T13:23:42.489Z,9.60
2022-10-14T13:26:25.350Z,8.47
2022-10-14T13:29:13.865Z,9.37
2022-10-14T13:31:52.611Z,8.43
2022-10-14T13:34:37.560Z,8.97
2022-10-14T13:37:32.095Z,9.40
2022-10-14T13:40:18.566Z,10.83
2022-10-14T13:42:52.006Z,8.83
2022-10-14T13:45:32.364Z,8.10
2022-10-14T13:48:01.850Z,6.50
2022-10-14T13:50:37.862Z,7.50
2022-10-14T13:53:12.745Z,9.70
2022-10-14T13:55:50.238Z,7.77
2022-10-14T13:58:23.402Z,8.40
2022-10-14T14:01:01.615Z,8.27
2022-10-14T14:03:35.745Z,8.27
2022-10-14T14:06:11.857Z,8.73
2022-10-14T14:08:48.083Z,8.70
2022-10-14T14:11:22.401Z,7.87
2022-10-14T14:14:01.239Z,8.70
2022-10-14T14:16:33.910Z,6.97
2022-10-14T14:19:10.314Z,9.13
2022-10-14T14:21:39.899Z,9.93
2022-10-14T14:24:19.560Z,9.50
2022-10-14T14:26:47.827Z,7.23
2022-10-14T14:29:19.829Z,5.63
2022-10-14T14:34:39.397Z,7.10
2022-10-14T14:40:01.765Z,10.20
2022-10-14T14:42:35.895Z,10.37
2022-10-14T14:45:09.028Z,9.63
2022-10-14T14:47:37.261Z,30.27
2022-10-14T14:53:03.142Z,6.93
2022-10-14T14:55:41.952Z,7.30
2022-10-14T14:58:25.385Z,6.20
2022-10-14T15:00:54.892Z,6.13
2022-10-14T15:03:25.126Z,4.93
2022-10-14T15:05:57.378Z,4.80
2022-10-14T15:08:30.591Z,5.80
2022-10-14T15:11:00.310Z,5.70
2022-10-14T15:13:33.004Z,5.47
2022-10-14T15:16:01.289Z,4.80
2022-10-14T15:18:30.500Z,5.90
2022-10-14T15:21:15.890Z,5.60
2022-10-14T15:24:00.313Z,6.80
2022-10-14T15:26:34.452Z,6.20
2022-10-14T15:29:18.736Z,8.83
2022-10-14T15:32:03.528Z,9.37
2022-10-14T15:34:31.589Z,7.60
2022-10-14T15:36:59.545Z,6.67
2022-10-14T15:39:28.852Z,6.93
2022-10-14T15:41:56.817Z,6.23
2022-10-14T15:44:24.930Z,6.40
2022-10-14T15:47:10.292Z,5.90
2022-10-14T15:49:41.956Z,5.67
2022-10-14T15:52:16.633Z,5.43
2022-10-14T15:54:47.019Z,6.20
2022-10-14T15:57:16.711Z,6.00
2022-10-14T15:59:45.119Z,6.00
2022-10-14T16:02:20.019Z,6.10
2022-10-14T16:05:18.403Z,6.70
2022-10-14T16:07:36.673Z,6.20
2022-10-14T16:10:08.052Z,5.67
2022-10-14T16:12:36.277Z,7.13
2022-10-14T16:15:07.184Z,6.73
2022-10-14T16:17:36.229Z,6.83
2022-10-14T16:20:04.704Z,7.07
2022-10-14T16:22:32.680Z,6.10
2022-10-14T16:25:00.714Z,6.30
2022-10-14T16:27:30.045Z,5.40
2022-10-14T16:29:58.034Z,5.10
2022-10-14T16:32:26.017Z,4.83
2022-10-14T16:34:54.555Z,5.70
2022-10-14T16:37:22.815Z,5.90
2022-10-14T16:39:50.951Z,5.83
2022-10-14T16:42:18.977Z,4.90
2022-10-14T16:44:48.286Z,4.57
2022-10-14T16:47:20.217Z,6.33
2022-10-14T16:49:51.822Z,5.20
2022-10-14T16:52:20.661Z,5.70
2022-10-14T16:54:48.778Z,6.07
2022-10-14T16:57:16.909Z,5.80
2022-10-14T16:59:44.876Z,5.20
2022-10-14T17:02:17.013Z,5.90
2022-10-14T17:04:46.569Z,7.50
2022-10-14T17:07:17.288Z,5.03
2022-10-14T17:09:45.234Z,5.90
2022-10-14T17:12:14.026Z,5.63
2022-10-14T17:14:42.861Z,4.83
2022-10-14T17:17:12.951Z,4.53
2022-10-14T17:19:45.337Z,5.70
2022-10-14T17:22:13.602Z,4.50
2022-10-14T17:24:41.578Z,5.07
2022-10-14T17:27:09.533Z,3.90
2022-10-14T17:29:37.587Z,4.47
2022-10-14T17:32:05.629Z,5.67
2022-10-14T17:34:33.834Z,5.00
2022-10-14T17:37:03.291Z,5.47
2022-10-14T17:39:31.298Z,5.40
2022-10-14T17:41:59.329Z,5.20
2022-10-14T17:44:28.637Z,5.07
2022-10-14T17:46:56.858Z,3.90
2022-10-14T17:49:24.806Z,4.57
2022-10-14T17:51:52.757Z,5.63
2022-10-14T17:54:22.212Z,6.70
2022-10-14T17:56:50.180Z,4.80
2022-10-14T17:59:18.153Z,5.27
2022-10-14T18:02:03.111Z,5.33
2022-10-14T18:04:32.505Z,4.63
2022-10-14T18:07:00.913Z,5.13
2022-10-14T18:09:30.242Z,5.00
2022-10-14T18:12:13.756Z,6.50
2022-10-14T18:14:42.040Z,4.80
2022-10-14T18:17:12.150Z,5.30
2022-10-14T18:19:42.075Z,4.67
2022-10-14T18:22:13.347Z,5.60
2022-10-14T18:24:43.812Z,4.67
2022-10-14T18:27:12.309Z,5.03
2022-10-14T18:29:40.502Z,5.80
2022-10-14T18:32:08.477Z,5.37
2022-10-14T18:34:36.628Z,5.67
2022-10-14T18:37:04.627Z,4.77
2022-10-14T18:39:32.609Z,3.87
2022-10-14T18:42:02.003Z,3.80
2022-10-14T18:44:29.987Z,4.13
2022-10-14T18:47:00.689Z,3.20
2022-10-14T18:49:28.783Z,3.27
2022-10-14T18:51:56.694Z,3.57
2022-10-14T18:54:24.895Z,3.60
2022-10-14T18:56:54.725Z,3.30
2022-10-14T18:59:24.999Z,3.67
2022-10-14T19:01:53.379Z,3.70
2022-10-14T19:04:24.243Z,3.77
2022-10-14T19:06:52.367Z,4.40
2022-10-14T19:09:24.810Z,4.10
2022-10-14T19:11:53.769Z,5.03
2022-10-14T19:14:23.461Z,7.20
2022-10-14T19:16:51.890Z,7.07
2022-10-14T19:19:21.112Z,6.23
2022-10-14T19:21:54.109Z,6.33
2022-10-14T19:24:22.302Z,5.00
2022-10-14T19:26:50.840Z,5.17
2022-10-14T19:29:19.050Z,3.53
2022-10-14T19:31:54.252Z,4.37
2022-10-14T19:34:26.699Z,3.63
2022-10-14T19:36:55.509Z,3.97
2022-10-14T19:39:23.675Z,3.20
2022-10-14T19:41:51.771Z,3.77
2022-10-14T19:44:20.150Z,3.60
2022-10-14T19:46:49.651Z,3.87
2022-10-14T19:49:17.895Z,3.90
2022-10-14T19:51:45.966Z,3.10
2022-10-14T19:54:15.065Z,3.13
2022-10-14T19:56:43.434Z,2.90
2022-10-14T19:59:13.397Z,3.13
2022-10-14T20:01:41.578Z,2.60
2022-10-14T20:04:11.116Z,3.77
2022-10-14T20:06:40.147Z,3.03
2022-10-14T20:09:08.916Z,2.30
2022-10-14T20:11:37.044Z,3.00
2022-10-14T20:14:09.126Z,3.20
2022-10-14T20:16:37.250Z,3.27
2022-10-14T20:19:05.893Z,2.83
2022-10-14T20:21:35.276Z,3.10
2022-10-14T20:24:03.369Z,3.50
2022-10-14T20:26:31.418Z,3.00
2022-10-14T20:28:59.761Z,4.20
2022-10-14T20:31:27.846Z,3.33
2022-10-14T20:33:57.273Z,2.60
2022-10-14T20:36:25.528Z,2.93
2022-10-14T20:38:54.946Z,3.77
2022-10-14T20:41:25.358Z,3.60
2022-10-14T20:43:55.215Z,2.60
2022-10-14T20:46:24.701Z,3.70
2022-10-14T20:48:55.924Z,3.20
2022-10-14T20:51:24.924Z,3.37
2022-10-14T20:54:01.881Z,9.67
2022-10-14T20:56:34.383Z,9.50
2022-10-14T20:59:04.805Z,12.90
2022-10-14T21:01:35.617Z,11.33
2022-10-14T21:04:07.111Z,9.40
2022-10-14T21:06:36.281Z,21.57
2022-10-14T21:09:05.827Z,13.50
2022-10-14T21:11:33.894Z,9.10
2022-10-14T21:14:03.430Z,6.30
2022-10-14T21:16:34.026Z,4.50
2022-10-14T21:19:04.799Z,5.60
2022-10-14T21:21:37.847Z,6.13
2022-10-14T21:24:08.633Z,5.70
2022-10-14T21:26:36.943Z,5.53
2022-10-14T21:29:07.127Z,4.83
2022-10-14T21:31:35.273Z,5.20
2022-10-14T21:34:06.816Z,4.57
2022-10-14T21:36:35.769Z,4.90
2022-10-14T21:39:08.503Z,5.00
2022-10-14T21:41:37.831Z,3.90
2022-10-14T21:44:06.819Z,4.17
2022-10-14T21:46:36.186Z,3.20
2022-10-14T21:49:05.879Z,3.27
2022-10-14T21:51:35.243Z,3.70
2022-10-14T21:54:04.123Z,4.03
2022-10-14T21:56:34.056Z,4.03
2022-10-14T21:59:02.533Z,4.10
2022-10-14T22:01:31.720Z,3.80
2022-10-14T22:04:03.654Z,3.90
2022-10-14T22:06:33.142Z,4.17
2022-10-14T22:09:03.583Z,3.90
2022-10-14T22:11:36.424Z,3.93
2022-10-14T22:14:07.642Z,4.43
2022-10-14T22:16:36.446Z,3.30
2022-10-14T22:19:06.556Z,3.67
2022-10-14T22:21:37.199Z,3.73
2022-10-14T22:26:35.969Z,3.73
2022-10-14T22:29:06.395Z,4.70
2022-10-14T22:31:35.654Z,2.90
2022-10-14T22:34:05.736Z,3.13
2022-10-14T22:36:35.316Z,3.67
2022-10-14T22:39:06.545Z,3.20
2022-10-14T22:41:36.208Z,2.80
2022-10-14T22:44:06.442Z,2.67
2022-10-14T22:46:37.620Z,3.73
2022-10-14T22:49:06.291Z,2.93
2022-10-14T22:51:38.051Z,3.50
2022-10-14T22:54:06.216Z,2.63
2022-10-14T22:56:35.502Z,2.70
2022-10-14T22:59:06.824Z,1.80
2022-10-14T23:01:35.456Z,1.87
2022-10-14T23:04:03.938Z,2.03
2022-10-14T23:06:32.823Z,2.37
2022-10-14T23:09:01.778Z,2.23
2022-10-14T23:11:32.225Z,2.33
2022-10-14T23:14:04.588Z,3.57
2022-10-14T23:16:35.022Z,2.50
2022-10-14T23:19:02.997Z,2.80
2022-10-14T23:21:33.975Z,2.83
2022-10-14T23:24:05.634Z,3.70
2022-10-14T23:26:35.687Z,2.40
2022-10-14T23:29:08.199Z,3.07
2022-10-14T23:31:38.240Z,2.80
2022-10-14T23:34:12.255Z,2.30
2022-10-14T23:36:41.007Z,2.73
2022-10-14T23:39:09.374Z,2.10
2022-10-14T23:41:37.425Z,2.10
2022-10-14T23:44:06.811Z,2.20
2022-10-14T23:46:34.752Z,2.07
2022-10-14T23:49:07.641Z,2.20
2022-10-14T23:51:42.857Z,3.10
2022-10-14T23:54:10.857Z,2.80
2022-10-14T23:56:38.804Z,2.63
2022-10-14T23:59:08.099Z,1.70
